Time;durP1;ratioP1;P1;durP2;ratioP2;P2;SDS_P1;SDS_P2;PMS_P1;PMS_P2;Temp;Humidity;BMP_temperature;BMP_pressure;BME280_temperature;BME280_humidity;BME280_pressure;Samples;Min_cycle;Max_cycle;Signal;HPM_P1;HPM_P2
2023/01/17 00:01:55;;;;;;;3.60;1.40;;;3.80;99.90;;;;;;4826631;29;20061;-80
2023/01/17 00:09:52;;;;;;;2.33;1.30;;;3.80;99.90;;;;;;4846973;29;20569;-81
2023/01/17 00:12:19;;;;;;;3.13;1.30;;;3.80;99.90;;;;;;4826222;29;20042;-81
2023/01/17 00:14:45;;;;;;;4.93;1.50;;;3.80;99.90;;;;;;4803768;29;20097;-80
2023/01/17 00:17:11;;;;;;;2.50;1.10;;;3.80;99.90;;;;;;4851412;29;20052;-80
2023/01/17 01:35:32;;;;;;;3.47;0.87;;;2.90;99.90;;;;;;4858478;29;20056;-81
2023/01/17 01:37:57;;;;;;;3.53;0.80;;;2.90;99.90;;;;;;4827491;29;20049;-82
2023/01/17 01:40:23;;;;;;;2.47;0.70;;;2.90;99.90;;;;;;4827839;29;20041;-80
2023/01/17 01:42:50;;;;;;;3.27;0.77;;;2.80;99.90;;;;;;4828043;29;20057;-82
2023/01/17 01:45:23;;;;;;;3.03;1.00;;;2.80;99.90;;;;;;4876034;29;20052;-81
2023/01/17 01:47:52;;;;;;;3.33;1.00;;;2.80;99.90;;;;;;4861200;29;20052;-82
2023/01/17 01:50:20;;;;;;;2.97;0.80;;;2.80;99.90;;;;;;4840664;29;20101;-81
2023/01/17 01:52:50;;;;;;;4.60;0.93;;;2.70;99.90;;;;;;4844295;29;20048;-82
2023/01/17 01:55:30;;;;;;;7.13;1.03;;;2.80;99.90;;;;;;4830507;29;20045;-82
2023/01/17 01:58:01;;;;;;;3.40;1.00;;;2.80;99.90;;;;;;4858240;29;20041;-81
2023/01/17 02:00:34;;;;;;;1.60;0.90;;;2.70;99.90;;;;;;4841648;29;20169;-81
2023/01/17 02:03:06;;;;;;;3.37;1.00;;;2.70;99.90;;;;;;4857887;29;20062;-80
2023/01/17 02:05:34;;;;;;;4.53;1.00;;;2.70;99.90;;;;;;4842917;29;20041;-81
2023/01/17 02:08:06;;;;;;;3.27;1.00;;;2.70;99.90;;;;;;4831690;29;20185;-81
2023/01/17 02:10:38;;;;;;;2.47;0.80;;;2.80;99.90;;;;;;4842383;29;20057;-81
2023/01/17 02:13:04;;;;;;;3.55;0.80;;;2.80;99.90;;;;;;4861526;29;20046;-81
2023/01/17 02:15:44;;;;;;;5.70;0.70;;;2.80;99.90;;;;;;4858260;29;20137;-81
2023/01/17 02:18:47;;;;;;;3.73;0.87;;;2.80;99.90;;;;;;4867794;29;20515;-80
2023/01/17 02:21:30;;;;;;;3.87;0.70;;;2.80;99.90;;;;;;4842200;29;20129;-81
2023/01/17 02:24:05;;;;;;;3.33;0.97;;;2.70;99.90;;;;;;4838120;29;20084;-80
2023/01/17 02:26:43;;;;;;;3.93;1.00;;;2.70;99.90;;;;;;4830232;29;20053;-80
2023/01/17 02:29:41;;;;;;;7.07;1.17;;;2.70;99.90;;;;;;4843881;29;20059;-80
2023/01/17 02:32:13;;;;;;;3.87;0.90;;;2.60;99.90;;;;;;4859844;29;20133;-80
2023/01/17 02:34:44;;;;;;;4.38;1.00;;;2.60;99.90;;;;;;4858393;29;20065;-81
2023/01/17 02:37:27;;;;;;;4.15;1.00;;;2.60;99.90;;;;;;4857481;29;20053;-81
2023/01/17 02:39:59;;;;;;;3.30;1.00;;;2.50;99.90;;;;;;4837490;29;20048;-81
2023/01/17 02:42:29;;;;;;;;;;;2.50;99.90;;;;;;4845319;29;20064;-81
2023/01/17 02:44:54;;;;;;;4.03;1.53;;;2.40;99.90;;;;;;4841979;29;19975;-81
2023/01/17 02:47:25;;;;;;;4.17;1.33;;;2.40;99.90;;;;;;4826860;29;20124;-81
2023/01/17 02:49:54;;;;;;;3.93;1.00;;;2.40;99.90;;;;;;4827136;29;20120;-81
2023/01/17 02:52:46;;;;;;;5.50;1.10;;;2.30;99.90;;;;;;4830089;29;20486;-81
2023/01/17 02:55:55;;;;;;;5.25;1.13;;;2.30;99.90;;;;;;4840337;29;20433;-81
2023/01/17 02:58:54;;;;;;;3.00;1.00;;;2.40;99.90;;;;;;4844260;29;20049;-81
2023/01/17 03:01:33;;;;;;;2.20;0.90;;;2.40;99.90;;;;;;4866270;29;20055;-82
2023/01/17 03:04:22;;;;;;;5.07;1.13;;;2.40;99.90;;;;;;4857425;29;20060;-82
2023/01/17 03:06:54;;;;;;;4.63;1.10;;;2.50;99.90;;;;;;4812483;29;20999;-81
2023/01/17 03:09:20;;;;;;;7.97;1.23;;;2.50;99.90;;;;;;4832131;29;20538;-82
2023/01/17 03:11:46;;;;;;;3.70;1.13;;;2.50;99.90;;;;;;4845629;29;20120;-81
2023/01/17 03:14:12;;;;;;;4.80;1.40;;;2.50;99.90;;;;;;4838126;29;20045;-81
2023/01/17 03:16:38;;;;;;;7.90;1.27;;;2.60;99.90;;;;;;4830346;29;20068;-82
2023/01/17 03:19:03;;;;;;;4.63;1.20;;;2.60;99.90;;;;;;4831832;29;20041;-82
2023/01/17 03:21:29;;;;;;;6.80;1.53;;;2.60;99.90;;;;;;4860676;29;20045;-81
2023/01/17 03:23:55;;;;;;;5.30;1.03;;;2.70;99.90;;;;;;4847820;29;20097;-82
2023/01/17 03:26:21;;;;;;;6.47;0.90;;;2.70;99.90;;;;;;4814693;29;20505;-81
2023/01/17 03:28:46;;;;;;;7.87;1.80;;;2.70;99.90;;;;;;4852818;29;20545;-80
2023/01/17 03:31:18;;;;;;;4.47;1.30;;;2.70;99.90;;;;;;4850471;29;20154;-82
2023/01/17 03:33:44;;;;;;;4.28;1.00;;;2.80;99.90;;;;;;4846854;29;20053;-82
2023/01/17 03:36:10;;;;;;;4.87;1.17;;;2.70;99.90;;;;;;4859838;29;20045;-82
2023/01/17 03:38:36;;;;;;;6.43;1.53;;;2.70;99.90;;;;;;4832595;29;20042;-82
2023/01/17 03:41:02;;;;;;;6.77;1.00;;;2.70;99.90;;;;;;4855962;29;20516;-81
2023/01/17 03:43:28;;;;;;;3.93;1.03;;;2.70;99.90;;;;;;4844830;29;21474;-82
2023/01/17 03:46:02;;;;;;;3.80;0.97;;;2.60;99.90;;;;;;4814173;29;20045;-81
2023/01/17 03:48:27;;;;;;;10.50;1.30;;;2.60;99.90;;;;;;4852960;29;20561;-82
2023/01/17 03:50:53;;;;;;;4.17;1.00;;;2.60;99.90;;;;;;4829614;29;20066;-82
2023/01/17 03:53:19;;;;;;;3.20;1.07;;;2.60;99.90;;;;;;4822121;29;20175;-82
2023/01/17 03:55:45;;;;;;;8.03;1.17;;;2.60;99.90;;;;;;4847706;29;20497;-81
2023/01/17 03:58:11;;;;;;;4.47;1.60;;;2.60;99.90;;;;;;4824285;29;20450;-82
2023/01/17 04:00:37;;;;;;;8.97;1.63;;;2.60;99.90;;;;;;4844305;29;20045;-81
2023/01/17 04:03:03;;;;;;;8.43;1.60;;;2.60;99.90;;;;;;4832886;29;20076;-82
2023/01/17 04:05:29;;;;;;;5.73;1.93;;;2.60;99.90;;;;;;4831526;29;20485;-83
2023/01/17 04:07:54;;;;;;;7.07;1.37;;;2.60;99.90;;;;;;4831862;29;20470;-82
2023/01/17 04:10:20;;;;;;;4.10;1.00;;;2.60;99.90;;;;;;4815041;29;20049;-81
2023/01/17 04:12:46;;;;;;;7.43;1.30;;;2.60;99.90;;;;;;4829973;29;20401;-81
2023/01/17 04:15:12;;;;;;;3.83;0.90;;;2.60;99.90;;;;;;4843971;29;20056;-81
2023/01/17 04:17:38;;;;;;;5.40;1.10;;;2.60;99.90;;;;;;4828552;29;20061;-81
2023/01/17 04:20:04;;;;;;;11.73;1.97;;;2.60;99.90;;;;;;4843828;29;20046;-81
2023/01/17 04:22:30;;;;;;;7.37;1.50;;;2.60;99.90;;;;;;4845635;29;20498;-82
2023/01/17 04:24:57;;;;;;;4.53;1.30;;;2.60;99.90;;;;;;4848188;29;20053;-82
2023/01/17 04:27:23;;;;;;;7.70;1.60;;;2.50;99.90;;;;;;4806773;29;20049;-81
2023/01/17 04:29:48;;;;;;;3.90;1.10;;;2.60;99.90;;;;;;4815651;29;20375;-82
2023/01/17 04:32:14;;;;;;;8.57;1.83;;;2.50;99.90;;;;;;4798585;29;20049;-81
2023/01/17 04:34:40;;;;;;;4.67;1.17;;;2.50;99.90;;;;;;4851720;29;20124;-81
2023/01/17 04:37:06;;;;;;;4.83;1.17;;;2.40;99.90;;;;;;4843439;29;20048;-81
2023/01/17 04:39:32;;;;;;;6.03;1.10;;;2.40;99.90;;;;;;4843594;29;20049;-82
2023/01/17 04:41:57;;;;;;;3.53;0.90;;;2.30;99.90;;;;;;4859085;29;20045;-81
2023/01/17 04:44:23;;;;;;;5.57;1.50;;;2.30;99.90;;;;;;4844448;29;20100;-81
2023/01/17 04:46:49;;;;;;;8.97;1.37;;;2.30;99.90;;;;;;4849015;29;20045;-81
2023/01/17 04:49:14;;;;;;;6.70;1.27;;;2.20;99.90;;;;;;4844734;29;20133;-81
2023/01/17 04:51:40;;;;;;;4.10;1.50;;;2.20;99.90;;;;;;4830625;29;20386;-82
2023/01/17 04:54:06;;;;;;;6.57;1.43;;;2.20;99.90;;;;;;4830542;29;20041;-81
2023/01/17 04:56:32;;;;;;;6.07;1.20;;;2.10;99.90;;;;;;4813796;29;20041;-81
2023/01/17 04:58:57;;;;;;;7.87;1.57;;;2.10;99.90;;;;;;4805817;29;20102;-82
2023/01/17 05:01:23;;;;;;;5.90;1.30;;;2.10;99.90;;;;;;4843517;29;20158;-82
2023/01/17 05:03:49;;;;;;;7.77;1.37;;;2.10;99.90;;;;;;4798125;29;20498;-81
2023/01/17 05:06:15;;;;;;;6.40;1.47;;;2.00;99.90;;;;;;4843347;29;20056;-81
2023/01/17 05:08:40;;;;;;;5.93;1.20;;;2.00;99.90;;;;;;4833226;29;20075;-82
2023/01/17 05:11:06;;;;;;;5.90;1.53;;;2.00;99.90;;;;;;4855513;29;20042;-82
2023/01/17 05:13:32;;;;;;;4.20;1.20;;;2.00;99.90;;;;;;4859204;29;20073;-81
2023/01/17 05:15:58;;;;;;;6.23;1.20;;;1.90;99.90;;;;;;4828133;29;20083;-81
2023/01/17 05:18:24;;;;;;;6.50;1.20;;;1.90;99.90;;;;;;4867735;29;20080;-81
2023/01/17 05:20:50;;;;;;;7.07;2.03;;;1.90;99.90;;;;;;4861682;29;20147;-81
2023/01/17 05:23:16;;;;;;;5.40;1.60;;;1.90;99.90;;;;;;4803610;29;20514;-81
2023/01/17 05:25:43;;;;;;;3.70;1.30;;;1.80;99.90;;;;;;4805693;29;20055;-81
2023/01/17 05:28:10;;;;;;;10.23;1.40;;;1.80;99.90;;;;;;4834368;29;20456;-81
2023/01/17 05:30:36;;;;;;;5.40;1.30;;;1.80;99.90;;;;;;4826519;29;20120;-81
2023/01/17 05:33:01;;;;;;;4.50;1.30;;;1.70;99.90;;;;;;4842353;29;20115;-81
2023/01/17 05:35:31;;;;;;;2.77;1.00;;;1.70;99.90;;;;;;4817441;29;20105;-81
2023/01/17 05:37:57;;;;;;;4.60;1.20;;;1.70;99.90;;;;;;4875382;29;20052;-81
2023/01/17 05:40:28;;;;;;;6.83;1.30;;;1.70;99.90;;;;;;4825436;29;20055;-81
2023/01/17 05:42:56;;;;;;;5.45;1.05;;;1.70;99.90;;;;;;4845478;29;20060;-81
2023/01/17 05:45:24;;;;;;;2.23;1.10;;;1.60;99.90;;;;;;4827477;29;20584;-81
2023/01/17 05:47:52;;;;;;;3.67;1.03;;;1.60;99.90;;;;;;4812913;29;20041;-81
2023/01/17 05:50:24;;;;;;;8.53;1.23;;;1.60;99.90;;;;;;4874710;29;20049;-81
2023/01/17 05:52:56;;;;;;;4.00;1.20;;;1.50;99.90;;;;;;4841358;29;20049;-81
2023/01/17 05:55:23;;;;;;;8.27;1.27;;;1.50;99.90;;;;;;4840333;29;20100;-81
2023/01/17 05:57:49;;;;;;;4.90;1.13;;;1.50;99.90;;;;;;4837105;29;20045;-81
2023/01/17 06:00:15;;;;;;;4.60;1.13;;;1.40;99.90;;;;;;4860410;29;20408;-81
2023/01/17 06:02:42;;;;;;;5.53;1.37;;;1.40;99.90;;;;;;4821144;29;20038;-81
2023/01/17 06:05:08;;;;;;;4.40;1.03;;;1.40;99.90;;;;;;4846414;29;20755;-81
2023/01/17 06:07:33;;;;;;;4.50;0.90;;;1.30;99.90;;;;;;4841655;29;20033;-81
2023/01/17 06:09:59;;;;;;;3.13;0.90;;;1.30;99.90;;;;;;4842433;29;20599;-81
2023/01/17 06:12:25;;;;;;;4.73;0.90;;;1.30;99.90;;;;;;4827582;29;20065;-81
2023/01/17 06:14:51;;;;;;;4.50;1.00;;;1.20;99.90;;;;;;4847901;29;20048;-81
2023/01/17 06:17:16;;;;;;;4.70;1.60;;;1.20;99.90;;;;;;4828260;29;20053;-81
2023/01/17 06:19:42;;;;;;;3.50;0.90;;;1.20;99.90;;;;;;4842800;29;20049;-81
2023/01/17 06:22:08;;;;;;;4.43;0.97;;;1.10;99.90;;;;;;4827284;29;20041;-80
2023/01/17 06:24:33;;;;;;;5.53;1.03;;;1.10;99.90;;;;;;4837611;29;20132;-81
2023/01/17 06:26:59;;;;;;;5.00;1.10;;;1.10;99.90;;;;;;4837126;29;20044;-81
2023/01/17 06:29:25;;;;;;;6.40;1.10;;;1.10;99.90;;;;;;4824034;29;20139;-81
2023/01/17 06:31:51;;;;;;;7.87;1.00;;;1.10;99.90;;;;;;4830154;29;20135;-80
2023/01/17 06:34:17;;;;;;;4.83;1.00;;;1.10;99.90;;;;;;4833981;29;20132;-81
2023/01/17 06:36:43;;;;;;;5.33;1.13;;;1.10;99.90;;;;;;4859199;29;20409;-80
2023/01/17 06:39:09;;;;;;;5.80;1.07;;;1.10;99.90;;;;;;4847512;29;20143;-80
2023/01/17 06:41:35;;;;;;;5.30;1.10;;;1.10;99.90;;;;;;4844991;29;20390;-80
2023/01/17 06:44:01;;;;;;;3.80;0.90;;;1.10;99.90;;;;;;4824274;29;20029;-80
2023/01/17 06:46:27;;;;;;;2.33;1.00;;;1.10;99.90;;;;;;4859718;29;20173;-80
2023/01/17 06:48:53;;;;;;;3.93;1.10;;;1.10;99.90;;;;;;4846527;29;20057;-80
2023/01/17 06:51:18;;;;;;;4.33;1.13;;;1.10;99.90;;;;;;4820961;29;20041;-80
2023/01/17 06:53:44;;;;;;;3.97;1.30;;;1.00;99.90;;;;;;4831039;29;20042;-80
2023/01/17 06:56:10;;;;;;;5.17;1.00;;;1.00;99.90;;;;;;4844771;29;20501;-80
2023/01/17 06:58:35;;;;;;;4.97;1.20;;;1.00;99.90;;;;;;4829235;29;20056;-80
2023/01/17 07:01:09;;;;;;;5.27;1.37;;;1.00;99.90;;;;;;4859682;29;20049;-81
2023/01/17 07:03:35;;;;;;;5.73;1.20;;;1.00;99.90;;;;;;4861778;29;20072;-79
2023/01/17 07:06:01;;;;;;;7.17;1.30;;;1.00;99.90;;;;;;4845056;29;20501;-80
2023/01/17 07:08:28;;;;;;;7.47;1.20;;;1.10;99.90;;;;;;4849783;29;20101;-80
2023/01/17 07:10:59;;;;;;;6.10;1.50;;;1.00;99.90;;;;;;4844897;29;20049;-80
2023/01/17 07:13:25;;;;;;;5.33;1.30;;;1.10;99.90;;;;;;4852592;29;20042;-79
2023/01/17 07:15:51;;;;;;;8.23;1.20;;;1.00;99.90;;;;;;4868124;29;20045;-80
2023/01/17 07:18:22;;;;;;;8.43;1.60;;;1.00;99.90;;;;;;4843197;29;20763;-80
2023/01/17 07:20:51;;;;;;;4.37;1.10;;;1.00;99.90;;;;;;4875622;29;20052;-80
2023/01/17 07:23:18;;;;;;;6.67;1.50;;;1.00;99.90;;;;;;4858660;29;20037;-79
2023/01/17 07:25:50;;;;;;;5.30;1.33;;;1.00;99.90;;;;;;4842634;29;20481;-80
2023/01/17 07:28:15;;;;;;;;;;;1.00;99.90;;;;;;4845613;29;20083;-79
2023/01/17 07:30:41;;;;;;;4.63;1.30;;;0.90;99.90;;;;;;4844988;29;19951;-79
2023/01/17 07:33:08;;;;;;;5.33;1.27;;;0.90;99.90;;;;;;4838203;29;20528;-80
2023/01/17 07:35:34;;;;;;;5.30;1.27;;;0.90;99.90;;;;;;4851595;29;20594;-79
2023/01/17 07:38:00;;;;;;;6.77;1.57;;;1.00;99.90;;;;;;4815658;29;20049;-80
2023/01/17 07:40:26;;;;;;;4.23;1.10;;;0.90;99.90;;;;;;4877854;29;20108;-79
2023/01/17 07:42:51;;;;;;;8.13;1.40;;;0.90;99.90;;;;;;4817090;29;20120;-80
2023/01/17 07:45:18;;;;;;;7.70;1.50;;;1.00;99.90;;;;;;4833920;29;20046;-80
2023/01/17 07:47:44;;;;;;;7.93;1.50;;;0.90;99.90;;;;;;4838534;29;20045;-80
2023/01/17 07:50:10;;;;;;;10.03;1.10;;;1.00;99.90;;;;;;4836328;29;20057;-80
2023/01/17 07:52:36;;;;;;;5.93;1.10;;;1.00;99.90;;;;;;4848085;29;20061;-80
2023/01/17 07:55:02;;;;;;;3.87;1.23;;;1.00;99.90;;;;;;4868309;29;20442;-79
2023/01/17 07:57:27;;;;;;;3.23;1.00;;;1.00;99.90;;;;;;4840595;29;20089;-80
2023/01/17 07:59:53;;;;;;;4.33;1.10;;;1.00;99.90;;;;;;4855476;29;20820;-80
2023/01/17 08:02:21;;;;;;;6.23;1.50;;;1.00;99.90;;;;;;4824821;29;20495;-80
2023/01/17 08:04:47;;;;;;;4.00;1.00;;;1.10;99.90;;;;;;4841948;29;20146;-80
2023/01/17 08:07:14;;;;;;;3.37;1.03;;;1.10;99.90;;;;;;4858218;29;20048;-80
2023/01/17 08:09:41;;;;;;;2.37;1.03;;;1.10;99.90;;;;;;4826250;29;20053;-81
2023/01/17 08:12:07;;;;;;;2.97;1.10;;;1.10;99.90;;;;;;4840188;29;20109;-80
2023/01/17 08:14:33;;;;;;;5.50;1.30;;;1.10;99.90;;;;;;4855493;29;20546;-80
2023/01/17 08:17:07;;;;;;;5.47;1.00;;;1.10;99.90;;;;;;4839463;29;20046;-81
2023/01/17 08:19:33;;;;;;;4.43;1.27;;;1.10;99.90;;;;;;4845328;29;20037;-80
2023/01/17 08:21:59;;;;;;;4.23;1.43;;;1.20;99.90;;;;;;4845065;29;20048;-80
2023/01/17 08:24:24;;;;;;;3.87;1.20;;;1.20;99.90;;;;;;4835474;29;20045;-80
2023/01/17 08:26:53;;;;;;;4.57;1.10;;;1.20;99.90;;;;;;4854785;29;20374;-80
2023/01/17 08:29:19;;;;;;;4.20;1.10;;;1.30;99.90;;;;;;4827280;29;20049;-81
2023/01/17 08:31:45;;;;;;;5.10;1.20;;;1.30;99.90;;;;;;4827423;29;20405;-81
2023/01/17 08:34:12;;;;;;;3.33;1.20;;;1.30;99.90;;;;;;4805334;29;20046;-81
2023/01/17 08:36:39;;;;;;;3.40;1.20;;;1.30;99.90;;;;;;4814162;29;20051;-80
2023/01/17 08:39:04;;;;;;;5.00;1.70;;;1.40;99.90;;;;;;4864907;29;20425;-81
2023/01/17 08:41:31;;;;;;;5.17;1.17;;;1.40;99.90;;;;;;4838249;29;20123;-81
2023/01/17 08:43:57;;;;;;;5.93;2.47;;;1.40;99.90;;;;;;4862697;29;20069;-80
2023/01/17 08:46:23;;;;;;;2.67;1.10;;;1.40;99.90;;;;;;4816502;29;20056;-81
2023/01/17 08:48:57;;;;;;;6.67;1.50;;;1.50;99.90;;;;;;4869868;29;20057;-80
2023/01/17 08:51:25;;;;;;;3.27;1.20;;;1.50;99.90;;;;;;4841511;29;20397;-80
2023/01/17 08:53:51;;;;;;;3.97;1.30;;;1.50;99.90;;;;;;4828333;29;20052;-80
2023/01/17 08:56:18;;;;;;;2.53;1.17;;;1.50;99.90;;;;;;4843318;29;20091;-80
2023/01/17 08:58:43;;;;;;;8.20;2.17;;;1.50;99.90;;;;;;4866156;29;20129;-80
2023/01/17 09:01:09;;;;;;;4.60;1.47;;;1.50;99.90;;;;;;4861204;29;20474;-80
2023/01/17 09:03:35;;;;;;;6.83;1.40;;;1.60;99.90;;;;;;4808767;29;20124;-80
2023/01/17 09:06:12;;;;;;;5.07;1.70;;;1.60;99.90;;;;;;4836739;29;20045;-80
2023/01/17 09:08:38;;;;;;;4.37;1.30;;;1.60;99.90;;;;;;4833809;29;20057;-80
2023/01/17 09:11:09;;;;;;;5.03;1.33;;;1.70;99.90;;;;;;4828463;29;20132;-80
2023/01/17 09:13:35;;;;;;;5.67;1.30;;;1.70;99.90;;;;;;4854917;29;20072;-80
2023/01/17 09:16:02;;;;;;;4.40;1.20;;;1.70;99.90;;;;;;4842810;29;20104;-81
2023/01/17 09:18:29;;;;;;;5.87;1.40;;;1.80;99.90;;;;;;4857220;29;20401;-81
2023/01/17 09:20:57;;;;;;;5.47;1.40;;;1.80;99.90;;;;;;4858138;29;20041;-80
2023/01/17 09:23:24;;;;;;;3.73;1.23;;;1.90;99.90;;;;;;4840461;29;20046;-81
2023/01/17 09:25:58;;;;;;;5.20;1.23;;;1.90;99.90;;;;;;4827857;29;20045;-81
2023/01/17 09:28:25;;;;;;;3.17;1.10;;;2.00;99.90;;;;;;4837932;29;20053;-82
2023/01/17 09:30:51;;;;;;;4.43;1.27;;;2.10;99.90;;;;;;4831460;29;20540;-81
2023/01/17 09:33:17;;;;;;;2.87;1.10;;;2.10;99.90;;;;;;4842747;29;20124;-81
2023/01/17 09:35:44;;;;;;;5.47;1.30;;;2.20;99.90;;;;;;4852919;29;20041;-81
2023/01/17 09:38:10;;;;;;;8.73;2.00;;;2.30;99.90;;;;;;4842769;29;20172;-81
2023/01/17 09:40:40;;;;;;;4.53;1.20;;;2.30;99.90;;;;;;4813384;29;20493;-81
2023/01/17 09:43:25;;;;;;;3.27;1.20;;;2.40;99.90;;;;;;4869138;29;20116;-81
2023/01/17 09:45:51;;;;;;;5.60;1.27;;;2.40;99.90;;;;;;4869902;29;20053;-81
2023/01/17 09:48:36;;;;;;;6.43;1.30;;;2.50;99.90;;;;;;4847095;29;20042;-81
2023/01/17 09:51:13;;;;;;;4.70;1.57;;;2.50;99.90;;;;;;4845963;29;20041;-81
2023/01/17 09:53:40;;;;;;;2.37;1.60;;;2.60;99.90;;;;;;4835957;29;20037;-81
2023/01/17 09:56:16;;;;;;;6.77;1.53;;;2.60;99.90;;;;;;4841598;29;20521;-81
2023/01/17 09:59:00;;;;;;;10.33;2.20;;;2.70;99.90;;;;;;4834071;29;20076;-81
2023/01/17 10:01:58;;;;;;;6.13;1.90;;;2.70;99.90;;;;;;4841286;29;20405;-81
2023/01/17 10:04:39;;;;;;;7.73;1.77;;;2.70;99.90;;;;;;4844980;29;20097;-82
2023/01/17 10:07:40;;;;;;;5.87;1.87;;;2.80;99.90;;;;;;4860998;29;20120;-82
2023/01/17 10:10:34;;;;;;;6.93;2.10;;;2.80;99.90;;;;;;4839021;29;20089;-82
2023/01/17 10:13:10;;;;;;;5.27;1.90;;;2.80;99.90;;;;;;4806830;29;20086;-82
2023/01/17 10:16:02;;;;;;;5.90;2.17;;;2.80;99.90;;;;;;4820861;29;20439;-81
2023/01/17 10:18:52;;;;;;;6.78;1.90;;;2.80;99.90;;;;;;4819307;29;20058;-81
2023/01/17 10:21:37;;;;;;;6.37;2.07;;;2.80;99.90;;;;;;4835124;29;20425;-81
2023/01/17 10:24:39;;;;;;;7.50;1.90;;;2.90;99.90;;;;;;4824828;29;20133;-82
2023/01/17 10:27:18;;;;;;;5.00;1.85;;;3.00;99.90;;;;;;4840467;29;20206;-81
2023/01/17 10:29:46;;;;;;;7.60;2.10;;;3.10;99.90;;;;;;4824146;29;20046;-82
2023/01/17 10:32:14;;;;;;;5.30;2.20;;;3.20;99.90;;;;;;4852526;29;20053;-81
2023/01/17 10:34:48;;;;;;;5.80;2.00;;;3.20;99.90;;;;;;4849249;29;20413;-81
2023/01/17 10:37:14;;;;;;;3.63;1.40;;;3.30;99.90;;;;;;4825018;29;20817;-82
2023/01/17 10:39:42;;;;;;;6.80;1.73;;;3.40;99.90;;;;;;4821737;29;20121;-81
2023/01/17 10:42:30;;;;;;;5.13;1.60;;;3.40;99.90;;;;;;4812805;29;20038;-81
2023/01/17 10:45:19;;;;;;;3.80;1.50;;;3.50;99.90;;;;;;4823355;29;20122;-82
2023/01/17 10:47:53;;;;;;;3.60;1.47;;;3.50;99.90;;;;;;4827322;29;20090;-81
2023/01/17 10:50:21;;;;;;;4.83;1.80;;;3.60;99.90;;;;;;4858007;29;20050;-82
2023/01/17 10:53:08;;;;;;;6.50;1.83;;;3.60;99.90;;;;;;4843397;29;20052;-82
2023/01/17 10:55:38;;;;;;;4.83;1.83;;;3.70;99.90;;;;;;4852077;29;20050;-82
2023/01/17 10:58:09;;;;;;;6.33;1.70;;;3.70;99.90;;;;;;4842875;29;20065;-82
2023/01/17 11:00:44;;;;;;;10.23;2.17;;;3.80;99.90;;;;;;4844257;29;20521;-82
2023/01/17 11:03:12;;;;;;;2.17;1.40;;;3.80;99.90;;;;;;4830447;29;20474;-82
2023/01/17 11:05:39;;;;;;;6.73;1.50;;;3.80;99.90;;;;;;4827623;29;20057;-81
2023/01/17 11:08:08;;;;;;;6.00;1.73;;;3.90;99.90;;;;;;4857313;29;20443;-82
2023/01/17 11:10:35;;;;;;;5.93;1.80;;;4.00;99.90;;;;;;4843794;29;20084;-81
2023/01/17 11:13:03;;;;;;;4.97;1.60;;;4.00;99.90;;;;;;4845822;29;20098;-81
2023/01/17 11:15:33;;;;;;;4.90;1.30;;;4.00;99.90;;;;;;4836010;29;20064;-82
2023/01/17 11:18:06;;;;;;;5.07;1.47;;;4.10;99.90;;;;;;4864146;29;20087;-81
2023/01/17 11:20:38;;;;;;;8.40;1.50;;;4.10;99.90;;;;;;4819332;29;20455;-82
2023/01/17 11:23:31;;;;;;;3.50;1.43;;;4.10;99.90;;;;;;4864315;29;20109;-82
2023/01/17 11:26:03;;;;;;;3.33;1.40;;;4.20;99.90;;;;;;4842141;29;20141;-81
2023/01/17 11:28:34;;;;;;;3.65;1.40;;;4.20;99.90;;;;;;4844539;29;20682;-82
2023/01/17 11:31:23;;;;;;;3.60;1.38;;;4.20;99.90;;;;;;4838405;29;20049;-82
2023/01/17 11:34:23;;;;;;;5.87;1.53;;;4.30;99.90;;;;;;4840997;29;20098;-82
2023/01/17 11:37:17;;;;;;;4.30;1.20;;;4.30;99.90;;;;;;4842227;29;20053;-83
2023/01/17 11:39:46;;;;;;;3.77;1.50;;;4.40;99.90;;;;;;4841033;29;20052;-82
2023/01/17 11:42:32;;;;;;;4.23;1.47;;;4.40;99.90;;;;;;4822188;29;20155;-81
2023/01/17 11:45:25;;;;;;;4.27;1.37;;;4.40;99.90;;;;;;4860871;29;20041;-83
2023/01/17 11:48:12;;;;;;;;;;;4.50;99.90;;;;;;4836926;29;20044;-83
2023/01/17 11:50:58;;;;;;;6.27;1.80;;;4.40;99.90;;;;;;4845590;29;19931;-83
2023/01/17 11:53:47;;;;;;;4.60;1.53;;;4.40;99.90;;;;;;4829298;29;20048;-82
2023/01/17 11:56:32;;;;;;;8.47;1.30;;;4.40;99.90;;;;;;4853200;29;20045;-83
2023/01/17 11:59:27;;;;;;;5.13;1.63;;;4.50;99.90;;;;;;4845945;29;20049;-84
2023/01/17 12:02:11;;;;;;;5.77;1.80;;;4.50;99.90;;;;;;4827537;29;20057;-82
2023/01/17 12:04:45;;;;;;;4.37;1.93;;;4.60;99.90;;;;;;4845214;29;20863;-83
2023/01/17 12:07:31;;;;;;;5.63;2.13;;;4.60;99.90;;;;;;4829037;29;20045;-83
2023/01/17 12:10:22;;;;;;;5.60;1.80;;;4.60;99.90;;;;;;4859647;29;20057;-83
2023/01/17 12:16:29;;;;;;;5.77;2.07;;;4.70;99.90;;;;;;4874758;29;20049;-84
2023/01/17 12:19:17;;;;;;;4.60;1.70;;;4.70;99.90;;;;;;4859646;29;20038;-83
2023/01/17 12:22:17;;;;;;;5.87;1.87;;;4.70;99.90;;;;;;4826580;29;20045;-81
2023/01/17 12:25:10;;;;;;;3.23;2.00;;;4.70;99.90;;;;;;4841988;29;20108;-83
2023/01/17 12:28:08;;;;;;;6.77;1.60;;;4.80;99.90;;;;;;4854731;29;20049;-82
2023/01/17 12:31:00;;;;;;;4.47;1.50;;;4.70;99.90;;;;;;4860239;29;20049;-83
2023/01/17 12:33:49;;;;;;;5.97;1.80;;;4.80;99.90;;;;;;4878933;29;20049;-83
2023/01/17 12:36:20;;;;;;;2.93;1.80;;;4.70;99.90;;;;;;4848319;29;20056;-83
2023/01/17 12:38:47;;;;;;;5.07;1.65;;;4.80;99.90;;;;;;4878012;29;20052;-82
2023/01/17 12:41:15;;;;;;;5.07;1.70;;;4.80;99.90;;;;;;4862273;29;20057;-82
2023/01/17 12:43:43;;;;;;;6.60;1.60;;;4.80;99.90;;;;;;4871316;29;20521;-82
2023/01/17 12:46:20;;;;;;;7.00;1.80;;;4.90;99.90;;;;;;4871940;29;20113;-82
2023/01/17 12:48:52;;;;;;;9.67;1.97;;;5.00;99.90;;;;;;4849492;29;20037;-83
2023/01/17 12:51:28;;;;;;;6.38;1.80;;;5.00;99.90;;;;;;4862033;29;20049;-84
2023/01/17 12:54:18;;;;;;;4.80;1.40;;;5.10;99.90;;;;;;4840591;29;20573;-83
2023/01/17 12:57:00;;;;;;;3.40;1.73;;;5.10;99.90;;;;;;4830625;29;20062;-82
2023/01/17 12:59:36;;;;;;;4.63;1.70;;;5.10;99.90;;;;;;4875015;29;20084;-83
2023/01/17 13:02:38;;;;;;;5.50;1.60;;;5.10;99.90;;;;;;4829095;29;20048;-83
2023/01/17 13:05:22;;;;;;;2.93;1.60;;;5.10;99.90;;;;;;4823972;29;20049;-83
2023/01/17 13:08:09;;;;;;;8.60;2.00;;;5.10;99.90;;;;;;4859184;29;20065;-84
2023/01/17 13:10:46;;;;;;;9.77;2.40;;;5.20;99.90;;;;;;4858408;29;20520;-83
2023/01/17 13:13:21;;;;;;;3.13;1.80;;;5.20;99.90;;;;;;4847880;29;20055;-83
2023/01/17 13:15:52;;;;;;;5.20;1.83;;;5.10;99.90;;;;;;4864733;29;20052;-82
2023/01/17 13:18:24;;;;;;;3.92;1.60;;;5.10;99.90;;;;;;4846156;29;20037;-82
2023/01/17 13:21:05;;;;;;;4.15;1.75;;;5.20;99.90;;;;;;4833920;29;20042;-82
2023/01/17 13:24:04;;;;;;;3.87;1.80;;;5.30;99.90;;;;;;4826184;29;20111;-82
2023/01/17 13:26:59;;;;;;;5.97;2.23;;;5.30;99.90;;;;;;4826248;29;20037;-83
2023/01/17 13:30:10;;;;;;;6.40;2.03;;;5.40;99.90;;;;;;4849713;29;20048;-83
2023/01/17 13:33:00;;;;;;;5.47;1.90;;;5.40;99.90;;;;;;4857585;29;20034;-82
2023/01/17 13:35:58;;;;;;;3.27;1.93;;;5.40;99.90;;;;;;4842651;29;20081;-84
2023/01/17 13:38:42;;;;;;;6.17;2.40;;;5.40;99.90;;;;;;4843120;29;20079;-81
2023/01/17 13:41:30;;;;;;;3.37;1.90;;;5.30;99.90;;;;;;4843133;29;20126;-83
2023/01/17 13:47:10;;;;;;;4.33;1.70;;;5.40;99.90;;;;;;4878233;29;20136;-83
2023/01/17 13:49:48;;;;;;;3.40;1.70;;;5.40;99.90;;;;;;4820453;29;20103;-82
2023/01/17 13:52:20;;;;;;;4.33;1.93;;;5.40;99.90;;;;;;4867784;29;20052;-83
2023/01/17 13:54:51;;;;;;;5.45;1.65;;;5.30;99.90;;;;;;4871495;29;20054;-84
2023/01/17 13:57:31;;;;;;;3.80;1.70;;;5.20;99.90;;;;;;4855371;29;20455;-82
2023/01/17 14:00:20;;;;;;;4.47;1.47;;;5.10;99.90;;;;;;4843361;29;20466;-83
2023/01/17 14:02:50;;;;;;;4.53;1.33;;;5.00;99.90;;;;;;4844552;29;20393;-82
2023/01/17 14:05:20;;;;;;;2.43;1.03;;;4.80;99.90;;;;;;4843230;29;20046;-83
2023/01/17 14:08:01;;;;;;;3.77;1.67;;;4.70;99.90;;;;;;4846994;29;20125;-82
2023/01/17 14:10:37;;;;;;;4.07;1.25;;;4.60;99.90;;;;;;4828253;29;20054;-83
2023/01/17 14:13:05;;;;;;;1.87;1.10;;;4.60;99.90;;;;;;4877567;29;20105;-82
2023/01/17 14:15:34;;;;;;;2.27;1.13;;;4.60;99.90;;;;;;4843154;29;20056;-81
2023/01/17 14:18:01;;;;;;;1.60;0.80;;;4.50;99.90;;;;;;4871790;29;20132;-82
2023/01/17 14:20:36;;;;;;;2.70;0.80;;;4.50;99.90;;;;;;4835907;29;20053;-84
2023/01/17 14:23:20;;;;;;;2.67;0.80;;;4.60;99.90;;;;;;4853997;29;20105;-82
2023/01/17 14:25:46;;;;;;;2.17;0.77;;;4.60;99.90;;;;;;4842616;29;20057;-81
2023/01/17 14:28:31;;;;;;;3.00;0.80;;;4.50;99.90;;;;;;4852733;29;20041;-84
2023/01/17 14:30:59;;;;;;;1.43;0.80;;;4.50;99.90;;;;;;4842809;29;20427;-82
2023/01/17 14:33:34;;;;;;;2.40;0.80;;;4.50;99.90;;;;;;4842976;29;20120;-83
2023/01/17 14:36:04;;;;;;;2.90;1.40;;;4.40;99.90;;;;;;4860241;29;20041;-87
2023/01/17 14:38:32;;;;;;;2.77;1.07;;;4.40;99.90;;;;;;4844209;29;20097;-88
2023/01/17 14:41:12;;;;;;;2.17;0.80;;;4.40;99.90;;;;;;4846573;29;20091;-88
2023/01/17 14:43:42;;;;;;;1.10;0.80;;;4.40;99.90;;;;;;4832123;29;20505;-87
2023/01/17 14:46:28;;;;;;;3.87;0.97;;;4.40;99.90;;;;;;4844906;29;20055;-87
2023/01/17 14:49:04;;;;;;;3.40;0.80;;;4.40;99.90;;;;;;4849289;29;20060;-87
2023/01/17 14:51:33;;;;;;;6.20;0.77;;;4.30;99.90;;;;;;4847569;29;20113;-87
2023/01/17 14:54:01;;;;;;;2.50;1.13;;;4.20;99.90;;;;;;4830585;29;20049;-87